createdAt,value
2022-12-05T00:00:15.264Z,100747.63
2022-12-05T00:03:16.771Z,100748.66
2022-12-05T00:06:19.008Z,100744.22
2022-12-05T00:09:20.588Z,100749.66
2022-12-05T00:12:22.084Z,100746.94
2022-12-05T00:15:23.610Z,100745.09
2022-12-05T00:18:25.103Z,100741.50
2022-12-05T00:21:29.268Z,100743.22
2022-12-05T00:24:30.737Z,100738.78
2022-12-05T00:27:32.978Z,100736.94
2022-12-05T00:30:34.790Z,100735.22
2022-12-05T00:33:36.634Z,100735.22
2022-12-05T00:36:38.231Z,100733.53
2022-12-05T00:39:39.803Z,100727.41
2022-12-05T00:42:41.479Z,100733.53
2022-12-05T00:45:43.014Z,100729.97
2022-12-05T00:48:45.067Z,100734.53
2022-12-05T00:51:46.593Z,100738.25
2022-12-05T00:54:48.158Z,100744.72
2022-12-05T00:57:49.647Z,100739.41
2022-12-05T01:00:51.141Z,100736.00
2022-12-05T01:03:55.799Z,100734.13
2022-12-05T01:06:58.687Z,100731.59
2022-12-05T01:10:00.235Z,100731.75
2022-12-05T01:13:01.767Z,100728.31
2022-12-05T01:16:04.449Z,100736.47
2022-12-05T01:19:16.554Z,100736.47
2022-12-05T01:22:18.035Z,100728.63
2022-12-05T01:25:19.504Z,100727.94
2022-12-05T01:28:21.110Z,100728.09
2022-12-05T01:31:28.713Z,100736.25
2022-12-05T01:34:30.304Z,100732.81
2022-12-05T01:37:31.817Z,100730.25
2022-12-05T01:40:35.914Z,100729.59
2022-12-05T01:44:06.242Z,100718.72
2022-12-05T01:47:08.119Z,100728.03
2022-12-05T01:50:10.791Z,100728.31
2022-12-05T01:53:12.538Z,100732.91
2022-12-05T01:56:14.384Z,100732.03
2022-12-05T01:59:18.554Z,100726.75
2022-12-05T02:02:20.531Z,100727.78
2022-12-05T02:05:24.782Z,100728.63
2022-12-05T02:08:28.616Z,100723.19
2022-12-05T02:11:33.224Z,100723.38
2022-12-05T02:14:52.756Z,100722.66
2022-12-05T02:18:27.993Z,100722.66
2022-12-05T02:21:55.721Z,100722.66
2022-12-05T02:25:25.165Z,100716.53
2022-12-05T02:28:51.495Z,100731.97
2022-12-05T02:32:17.904Z,100723.97
2022-12-05T02:35:34.350Z,100724.41
2022-12-05T02:38:52.814Z,100724.28
2022-12-05T02:42:04.962Z,100721.72
2022-12-05T02:45:10.143Z,100716.47
2022-12-05T02:48:14.073Z,100714.72
2022-12-05T02:51:19.975Z,100714.72
2022-12-05T02:54:26.294Z,100716.47
2022-12-05T02:57:27.921Z,100717.63
2022-12-05T03:00:29.419Z,100717.63
2022-12-05T03:03:31.935Z,100714.91
2022-12-05T03:06:45.424Z,100712.91
2022-12-05T03:09:54.926Z,100715.75
2022-12-05T03:13:00.575Z,100703.19
2022-12-05T03:16:07.977Z,100703.19
2022-12-05T03:19:17.978Z,100702.31
2022-12-05T03:22:32.403Z,100705.03
2022-12-05T03:25:58.588Z,100711.63
2022-12-05T03:29:25.984Z,100715.34
2022-12-05T03:32:30.475Z,100713.66
2022-12-05T03:35:50.755Z,100715.50
2022-12-05T03:39:22.270Z,100710.25
2022-12-05T03:42:32.262Z,100720.22
2022-12-05T03:45:50.088Z,100717.34
2022-12-05T03:49:02.175Z,100711.09
2022-12-05T03:52:12.234Z,100705.66
2022-12-05T03:55:15.229Z,100710.06
2022-12-05T03:58:35.939Z,100709.09
2022-12-05T04:01:41.004Z,100706.50
2022-12-05T04:04:53.044Z,100708.25
2022-12-05T04:08:06.474Z,100706.38
2022-12-05T04:11:16.445Z,100708.06
2022-12-05T04:14:45.263Z,100703.47
2022-12-05T04:18:00.593Z,100700.63
2022-12-05T04:21:22.519Z,100701.47
2022-12-05T04:24:48.928Z,100705.75
2022-12-05T04:28:05.623Z,100705.59
2022-12-05T04:31:10.191Z,100703.59
2022-12-05T04:34:14.777Z,100702.72
2022-12-05T04:37:23.429Z,100698.84
2022-12-05T04:40:32.144Z,100699.53
2022-12-05T04:43:39.154Z,100702.13
2022-12-05T04:46:43.712Z,100695.53
2022-12-05T04:49:54.211Z,100688.94
2022-12-05T04:52:57.949Z,100690.63
2022-12-05T04:56:02.116Z,100696.91
2022-12-05T04:59:04.345Z,100696.91
2022-12-05T05:02:09.022Z,100702.19
2022-12-05T05:05:15.163Z,100697.78
2022-12-05T05:08:19.165Z,100696.91
2022-12-05T05:11:25.243Z,100704.91
2022-12-05T05:14:26.714Z,100699.63
2022-12-05T05:17:28.161Z,100706.78
2022-12-05T05:20:29.789Z,100709.63
2022-12-05T05:23:31.264Z,100706.06
2022-12-05T05:26:38.302Z,100711.50
2022-12-05T05:29:39.811Z,100706.38
2022-12-05T05:32:41.275Z,100701.94
2022-12-05T05:35:42.899Z,100706.53
2022-12-05T05:38:49.979Z,100707.38
2022-12-05T05:41:51.429Z,100709.56
2022-12-05T05:44:52.953Z,100711.41
2022-12-05T05:47:54.412Z,100717.00
2022-12-05T05:50:59.392Z,100711.56
2022-12-05T05:54:01.004Z,100721.72
2022-12-05T05:57:02.531Z,100729.00
2022-12-05T06:00:08.446Z,100728.16
2022-12-05T06:03:10.173Z,100722.72
2022-12-05T06:06:13.515Z,100715.44
2022-12-05T06:09:14.979Z,100719.00
2022-12-05T06:12:16.441Z,100716.13
2022-12-05T06:15:18.061Z,100717.00
2022-12-05T06:18:19.522Z,100716.00
2022-12-05T06:21:22.043Z,100719.56
2022-12-05T06:24:23.543Z,100720.41
2022-12-05T06:27:25.392Z,100719.38
2022-12-05T06:30:26.937Z,100717.56
2022-12-05T06:33:28.583Z,100715.50
2022-12-05T06:36:31.094Z,100718.22
2022-12-05T06:39:32.692Z,100718.22
2022-12-05T06:42:34.166Z,100723.66
2022-12-05T06:45:38.217Z,100721.81
2022-12-05T06:48:39.870Z,100720.94
2022-12-05T06:51:41.375Z,100724.69
2022-12-05T06:54:42.917Z,100725.84
2022-12-05T06:57:44.376Z,100724.13
2022-12-05T07:01:04.452Z,100724.13
2022-12-05T07:04:08.140Z,100735.84
2022-12-05T07:07:09.675Z,100736.16
2022-12-05T07:10:11.670Z,100733.59
2022-12-05T07:13:15.685Z,100739.16
2022-12-05T07:16:17.544Z,100742.88
2022-12-05T07:19:19.043Z,100739.47
2022-12-05T07:22:22.280Z,100744.03
2022-12-05T07:25:24.750Z,100741.63
2022-12-05T07:28:26.277Z,100740.09
2022-12-05T07:31:29.731Z,100737.38
2022-12-05T07:34:31.278Z,100746.47
2022-12-05T07:37:32.780Z,100746.47
2022-12-05T07:40:34.320Z,100754.59
2022-12-05T07:43:35.803Z,100751.03
2022-12-05T07:46:38.088Z,100755.63
2022-12-05T07:49:39.592Z,100756.63
2022-12-05T07:52:41.642Z,100759.34
2022-12-05T07:55:43.091Z,100754.91
2022-12-05T07:58:46.572Z,100755.94
2022-12-05T08:01:48.133Z,100755.22
2022-12-05T08:04:49.676Z,100754.50
2022-12-05T08:07:51.265Z,100756.50
2022-12-05T08:10:52.755Z,100761.94
2022-12-05T08:13:54.748Z,100758.38
2022-12-05T08:16:56.332Z,100758.53
2022-12-05T08:19:58.054Z,100759.38
2022-12-05T08:22:59.716Z,100762.09
2022-12-05T08:26:07.347Z,100759.22
2022-12-05T08:29:12.952Z,100763.81
2022-12-05T08:32:14.480Z,100762.94
2022-12-05T08:35:16.454Z,100765.66
2022-12-05T08:38:17.966Z,100771.09
2022-12-05T08:41:19.439Z,100778.38
2022-12-05T08:44:21.050Z,100782.94
2022-12-05T08:47:22.512Z,100780.38
2022-12-05T08:50:24.020Z,100770.53
2022-12-05T08:53:25.989Z,100777.81
2022-12-05T08:56:27.785Z,100778.81
2022-12-05T08:59:29.315Z,100778.09
2022-12-05T09:02:30.898Z,100778.97
2022-12-05T09:05:32.710Z,100776.41
2022-12-05T09:08:35.363Z,100778.28
2022-12-05T09:11:46.107Z,100777.25
2022-12-05T09:14:47.583Z,100771.13
2022-12-05T09:17:49.081Z,100780.09
2022-12-05T09:20:50.563Z,100775.56
2022-12-05T09:23:53.337Z,100779.97
2022-12-05T09:26:54.869Z,100779.13
2022-12-05T09:29:56.529Z,100782.69
2022-12-05T09:32:58.075Z,100781.84
2022-12-05T09:36:03.014Z,100786.25
2022-12-05T09:39:06.362Z,100784.56
2022-12-05T09:42:19.942Z,100781.84
2022-12-05T09:45:26.671Z,100776.56
2022-12-05T09:48:29.105Z,100774.84
2022-12-05T09:51:32.164Z,100779.44
2022-12-05T09:54:33.714Z,100777.69
2022-12-05T09:57:40.392Z,100778.56
2022-12-05T10:00:42.610Z,100767.72
2022-12-05T10:03:58.543Z,100770.28
2022-12-05T10:07:03.832Z,100770.41
2022-12-05T10:10:27.710Z,100766.56
2022-12-05T10:13:32.233Z,100763.84
2022-12-05T10:16:51.553Z,100762.69
2022-12-05T10:19:58.157Z,100760.13
2022-12-05T10:23:06.536Z,100765.41
2022-12-05T10:26:12.572Z,100766.28
2022-12-05T10:29:33.745Z,100767.13
2022-12-05T10:32:52.470Z,100768.09
2022-12-05T10:35:54.783Z,100764.72
2022-12-05T10:38:57.257Z,100758.41
2022-12-05T10:41:59.335Z,100767.56
2022-12-05T10:45:05.212Z,100770.28
2022-12-05T10:48:12.375Z,100764.16
2022-12-05T10:51:17.686Z,100752.59
2022-12-05T10:54:27.103Z,100758.91
2022-12-05T10:57:32.522Z,100761.59
2022-12-05T11:00:34.018Z,100763.44
2022-12-05T11:03:40.858Z,100756.84
2022-12-05T11:06:49.223Z,100757.75
2022-12-05T11:09:51.758Z,100745.16
2022-12-05T11:12:58.754Z,100752.31
2022-12-05T11:16:00.587Z,100755.88
2022-12-05T11:19:20.099Z,100752.16
2022-12-05T11:22:31.112Z,100754.00
2022-12-05T11:25:36.582Z,100745.88
2022-12-05T11:28:38.135Z,100747.75
2022-12-05T11:31:39.711Z,100749.75
2022-12-05T11:34:47.840Z,100743.28
2022-12-05T11:37:55.855Z,100745.16
2022-12-05T11:41:06.502Z,100734.63
2022-12-05T11:44:14.653Z,100736.31
2022-12-05T11:47:37.295Z,100741.91
2022-12-05T11:51:35.828Z,100734.75
2022-12-05T11:55:13.844Z,100737.47
2022-12-05T11:58:45.486Z,100734.75
2022-12-05T12:02:19.033Z,100733.78
2022-12-05T12:05:54.964Z,100730.03
2022-12-05T12:09:14.389Z,100719.19
2022-12-05T12:12:54.913Z,100724.50
2022-12-05T12:16:02.785Z,100726.19
2022-12-05T12:19:43.785Z,100719.91
2022-12-05T12:23:02.252Z,100722.31
2022-12-05T12:26:19.092Z,100719.59
2022-12-05T12:29:37.926Z,100722.50
2022-12-05T12:33:24.025Z,100724.31
2022-12-05T12:36:45.231Z,100717.34
2022-12-05T12:40:12.926Z,100720.06
2022-12-05T12:47:00.549Z,100722.34
2022-12-05T12:50:25.227Z,100721.50
2022-12-05T12:53:45.381Z,100715.25
2022-12-05T12:56:55.411Z,100709.81
2022-12-05T13:00:31.113Z,100725.78
2022-12-05T13:03:52.033Z,100726.63
2022-12-05T13:07:05.734Z,100720.34
2022-12-05T13:10:19.335Z,100724.50
2022-12-05T13:13:25.821Z,100715.50
2022-12-05T13:16:32.727Z,100718.91
2022-12-05T13:19:46.604Z,100713.47
2022-12-05T13:22:50.436Z,100716.88
2022-12-05T13:25:54.562Z,100713.19
2022-12-05T13:29:02.051Z,100716.44
2022-12-05T13:32:06.628Z,100719.88
2022-12-05T13:35:53.912Z,100721.41
2022-12-05T13:39:26.079Z,100727.56
2022-12-05T13:42:30.414Z,100726.66
2022-12-05T13:45:34.524Z,100724.84
2022-12-05T13:48:41.056Z,100730.25
2022-12-05T13:51:45.838Z,100724.84
2022-12-05T13:55:12.127Z,100728.09
2022-12-05T13:58:16.441Z,100735.22
2022-12-05T14:01:27.316Z,100733.22
2022-12-05T14:04:47.131Z,100733.91
2022-12-05T14:07:59.776Z,100733.78
2022-12-05T14:11:05.631Z,100736.50
2022-12-05T14:14:10.265Z,100736.22
2022-12-05T14:17:11.994Z,100739.78
2022-12-05T14:20:16.574Z,100725.19
2022-12-05T14:23:58.286Z,100728.59
2022-12-05T14:27:08.076Z,100730.34
2022-12-05T14:30:41.123Z,100719.47
2022-12-05T14:33:42.695Z,100723.19
2022-12-05T14:36:53.345Z,100725.59
2022-12-05T14:40:01.950Z,100718.31
2022-12-05T14:43:07.459Z,100726.47
2022-12-05T14:46:42.458Z,100723.75
2022-12-05T14:50:23.261Z,100724.41
2022-12-05T14:53:33.426Z,100722.72
2022-12-05T14:56:42.116Z,100729.84
2022-12-05T14:59:53.553Z,100735.13
2022-12-05T15:02:57.240Z,100738.69
2022-12-05T15:06:03.679Z,100733.97
2022-12-05T15:09:36.125Z,100741.09
2022-12-05T15:12:36.914Z,100738.25
2022-12-05T15:15:52.293Z,100738.09
2022-12-05T15:18:58.735Z,100726.22
2022-12-05T15:22:02.486Z,100743.22
2022-12-05T15:25:29.995Z,100745.75
2022-12-05T15:28:31.603Z,100744.78
2022-12-05T15:31:43.535Z,100751.03
2022-12-05T15:35:00.131Z,100751.88
2022-12-05T15:38:26.965Z,100752.75
2022-12-05T15:41:29.126Z,100756.47
2022-12-05T15:44:34.438Z,100757.31
2022-12-05T15:47:44.233Z,100753.31
2022-12-05T15:50:51.118Z,100748.59
2022-12-05T15:54:01.014Z,100758.28
2022-12-05T15:57:20.102Z,100759.66
2022-12-05T16:00:22.192Z,100757.66
2022-12-05T16:03:37.922Z,100755.31
2022-12-05T16:06:44.415Z,100768.59
2022-12-05T16:09:46.347Z,100760.13
2022-12-05T16:12:50.352Z,100767.28
2022-12-05T16:15:54.319Z,100766.25
2022-12-05T16:18:57.315Z,100761.53
2022-12-05T16:22:07.862Z,100761.22
2022-12-05T16:25:41.898Z,100767.34
2022-12-05T16:28:57.207Z,100764.63
2022-12-05T16:32:01.516Z,100765.66
2022-12-05T16:35:03.701Z,100766.50
2022-12-05T16:38:22.597Z,100766.50
2022-12-05T16:41:33.118Z,100763.94
2022-12-05T16:44:57.492Z,100766.81
2022-12-05T16:47:59.800Z,100763.53
2022-12-05T16:51:13.627Z,100761.84
2022-12-05T16:54:15.194Z,100764.88
2022-12-05T16:57:17.301Z,100756.03
2022-12-05T17:00:19.264Z,100763.47
2022-12-05T17:03:36.448Z,100765.66
2022-12-05T17:06:39.257Z,100762.22
2022-12-05T17:09:40.801Z,100760.69
2022-12-05T17:12:47.532Z,100769.66
2022-12-05T17:15:50.083Z,100765.41
2022-12-05T17:18:52.581Z,100772.00
2022-12-05T17:21:54.323Z,100766.56
2022-12-05T17:24:58.751Z,100770.13
2022-12-05T17:28:00.413Z,100767.59
2022-12-05T17:31:01.933Z,100774.00
2022-12-05T17:34:04.575Z,100767.59
2022-12-05T17:37:06.058Z,100774.69
2022-12-05T17:40:08.060Z,100777.28
2022-12-05T17:43:13.934Z,100780.66
2022-12-05T17:46:24.639Z,100773.22
2022-12-05T17:49:26.436Z,100779.50
2022-12-05T17:52:28.755Z,100772.38
2022-12-05T17:55:30.830Z,100774.06
2022-12-05T17:58:32.961Z,100768.50
2022-12-05T18:01:34.572Z,100778.50
2022-12-05T18:04:36.698Z,100767.66
2022-12-05T18:07:39.564Z,100775.63
2022-12-05T18:10:42.762Z,100783.78
2022-12-05T18:13:44.238Z,100782.22
2022-12-05T18:16:45.788Z,100778.66
2022-12-05T18:19:47.276Z,100792.22
2022-12-05T18:22:48.786Z,100793.94
2022-12-05T18:26:00.247Z,100795.66
2022-12-05T18:29:01.910Z,100793.25
2022-12-05T18:32:03.610Z,100790.53
2022-12-05T18:35:09.994Z,100790.53
2022-12-05T18:38:14.354Z,100789.69
2022-12-05T18:41:15.839Z,100787.97
2022-12-05T18:44:17.377Z,100796.94
2022-12-05T18:47:18.973Z,100799.66
2022-12-05T18:50:20.463Z,100802.38
2022-12-05T18:53:22.347Z,100805.09
2022-12-05T18:56:30.547Z,100805.81
2022-12-05T18:59:34.198Z,100808.69
2022-12-05T19:02:35.805Z,100812.25
2022-12-05T19:05:37.780Z,100812.25
2022-12-05T19:08:39.343Z,100814.13
2022-12-05T19:11:47.330Z,100808.69
2022-12-05T19:14:49.305Z,100808.69
2022-12-05T19:17:50.751Z,100810.53
2022-12-05T19:20:52.297Z,100812.38
2022-12-05T19:23:54.355Z,100815.94
2022-12-05T19:26:55.896Z,100819.69
2022-12-05T19:29:57.663Z,100818.00
2022-12-05T19:32:59.241Z,100818.00
2022-12-05T19:36:11.367Z,100825.13
2022-12-05T19:39:19.110Z,100818.00
2022-12-05T19:42:20.614Z,100817.28
2022-12-05T19:45:22.074Z,100830.84
2022-12-05T19:48:24.555Z,100829.13
2022-12-05T19:51:26.402Z,100822.00
2022-12-05T19:54:28.010Z,100821.16
2022-12-05T19:57:31.446Z,100809.44
2022-12-05T20:00:33.075Z,100813.00
2022-12-05T20:03:34.956Z,100817.72
2022-12-05T20:06:45.097Z,100815.88
2022-12-05T20:09:46.606Z,100821.47
2022-12-05T20:12:48.098Z,100819.75
2022-12-05T20:15:49.567Z,100826.00
2022-12-05T20:18:51.137Z,100823.28
2022-12-05T20:21:55.109Z,100823.28
2022-12-05T20:24:57.141Z,100825.16
2022-12-05T20:27:58.774Z,100834.16
2022-12-05T20:31:20.513Z,100815.16
2022-12-05T20:34:22.079Z,100824.31
2022-12-05T20:37:23.530Z,100827.16
2022-12-05T20:40:25.012Z,100822.75
2022-12-05T20:43:26.984Z,100816.31
2022-12-05T20:46:29.191Z,100814.63
2022-12-05T20:49:30.660Z,100817.34
2022-12-05T20:52:32.133Z,100810.03
2022-12-05T20:55:33.646Z,100818.03
2022-12-05T20:58:36.668Z,100806.47
2022-12-05T21:01:38.764Z,100815.47
2022-12-05T21:04:40.995Z,100804.59
2022-12-05T21:07:42.532Z,100801.06
2022-12-05T21:10:45.365Z,100802.59
2022-12-05T21:13:46.909Z,100796.34
2022-12-05T21:16:48.488Z,100792.78
2022-12-05T21:19:50.097Z,100797.19
2022-12-05T21:22:51.662Z,100795.47
2022-12-05T21:25:53.868Z,100802.59
2022-12-05T21:28:55.712Z,100799.03
2022-12-05T21:31:57.190Z,100798.34
2022-12-05T21:34:58.680Z,100791.03
2022-12-05T21:38:00.773Z,100796.63
2022-12-05T21:41:04.024Z,100791.22
2022-12-05T21:44:05.789Z,100794.06
2022-12-05T21:47:07.276Z,100800.50
2022-12-05T21:50:09.275Z,100797.81
2022-12-05T21:53:10.824Z,100794.38
2022-12-05T21:56:15.523Z,100794.38
2022-12-05T21:59:17.133Z,100794.69
2022-12-05T22:02:18.643Z,100810.09
2022-12-05T22:05:20.219Z,100805.69
2022-12-05T22:08:21.752Z,100809.56
2022-12-05T22:11:24.532Z,100812.25
2022-12-05T22:14:26.182Z,100811.56
2022-12-05T22:17:27.650Z,100807.28
2022-12-05T22:20:29.123Z,100800.31
2022-12-05T22:23:32.555Z,100792.16
2022-12-05T22:26:34.033Z,100790.47
2022-12-05T22:29:35.810Z,100798.59
2022-12-05T22:32:37.336Z,100794.03
2022-12-05T22:35:38.827Z,100796.03
2022-12-05T22:38:42.913Z,100797.03
2022-12-05T22:41:44.886Z,100792.56
2022-12-05T22:44:46.375Z,100784.59
2022-12-05T22:47:47.824Z,100782.03
2022-12-05T22:50:51.707Z,100782.88
2022-12-05T22:53:54.139Z,100776.06
2022-12-05T22:56:55.639Z,100782.47
2022-12-05T22:59:57.407Z,100779.94
2022-12-05T23:02:59.306Z,100780.06
2022-12-05T23:06:08.247Z,100773.78
2022-12-05T23:09:14.407Z,100774.94
2022-12-05T23:12:15.905Z,100767.84
2022-12-05T23:15:17.440Z,100762.41
2022-12-05T23:18:19.007Z,100761.53
2022-12-05T23:21:21.721Z,100764.25
2022-12-05T23:24:23.228Z,100761.69
2022-12-05T23:27:24.731Z,100759.84
2022-12-05T23:30:26.197Z,100759.00
2022-12-05T23:33:27.709Z,100762.56
2022-12-05T23:36:29.189Z,100750.84
2022-12-05T23:39:30.713Z,100750.00
2022-12-05T23:42:32.176Z,100755.56
2022-12-05T23:45:33.637Z,100745.88
2022-12-05T23:48:36.039Z,100754.84
2022-12-05T23:51:40.092Z,100757.75
2022-12-05T23:54:44.642Z,100762.16
2022-12-05T23:57:47.178Z,100759.75
